Time;durP1;ratioP1;P1;durP2;ratioP2;P2;SDS_P1;SDS_P2;PMS_P1;PMS_P2;Temp;Humidity;BMP_temperature;BMP_pressure;BME280_temperature;BME280_humidity;BME280_pressure;Samples;Min_cycle;Max_cycle;Signal;HPM_P1;HPM_P2
2022/08/14 00:06:58;;;;;;;2.58;2.13;;;30.90;42.20;;;;;;20874365;28;20037;-72
2022/08/14 00:16:59;;;;;;;2.53;2.00;;;30.90;42.20;;;;;;20872352;28;20123;-72
2022/08/14 00:26:59;;;;;;;2.58;2.00;;;30.90;42.30;;;;;;20886245;28;20032;-72
2022/08/14 00:37:00;;;;;;;2.65;2.25;;;30.90;42.40;;;;;;20853141;28;20039;-72
2022/08/14 00:47:02;;;;;;;3.33;2.53;;;30.90;42.40;;;;;;20869487;28;20028;-73
2022/08/14 00:57:03;;;;;;;2.55;2.22;;;30.90;42.50;;;;;;20884861;28;20040;-73
2022/08/14 01:07:03;;;;;;;2.95;2.47;;;30.90;42.60;;;;;;20866588;28;20484;-71
2022/08/14 01:17:04;;;;;;;3.70;2.67;;;30.90;42.80;;;;;;21211691;22;1084402;-73
2022/08/14 01:27:04;;;;;;;3.28;2.50;;;30.90;42.80;;;;;;20853273;28;20658;-73
2022/08/14 01:37:06;;;;;;;2.30;2.10;;;30.90;42.90;;;;;;20869161;28;20063;-72
2022/08/14 01:47:11;;;;;;;4.13;2.60;;;30.90;42.90;;;;;;20870195;28;20382;-72
2022/08/14 01:57:12;;;;;;;3.33;2.35;;;30.80;42.90;;;;;;20867829;28;20075;-72
2022/08/14 02:07:12;;;;;;;2.97;2.40;;;30.80;43.00;;;;;;20884612;28;20483;-72
2022/08/14 02:17:13;;;;;;;3.03;2.72;;;30.80;43.10;;;;;;20878653;28;20136;-72
2022/08/14 02:27:13;;;;;;;2.60;2.17;;;30.80;43.10;;;;;;20881224;28;20029;-71
2022/08/14 02:37:14;;;;;;;2.90;2.40;;;30.80;43.20;;;;;;20880527;28;20135;-72
2022/08/14 02:47:16;;;;;;;4.03;2.55;;;30.80;43.20;;;;;;20882125;28;20044;-71
2022/08/14 02:57:17;;;;;;;2.67;2.47;;;30.80;43.30;;;;;;20879053;28;20073;-72
2022/08/14 03:07:18;;;;;;;2.75;2.50;;;30.80;43.30;;;;;;20879517;28;20118;-71
2022/08/14 03:17:18;;;;;;;2.65;2.33;;;30.80;44.00;;;;;;20895152;28;20045;-73
2022/08/14 03:27:19;;;;;;;3.55;2.80;;;30.80;43.40;;;;;;20876107;28;20394;-72
2022/08/14 03:37:20;;;;;;;3.05;2.60;;;30.80;43.50;;;;;;20876254;28;20538;-72
2022/08/14 03:47:21;;;;;;;3.08;2.53;;;30.80;43.50;;;;;;20875220;28;20039;-71
2022/08/14 03:57:21;;;;;;;3.65;2.97;;;30.80;43.50;;;;;;20874673;28;20120;-72
2022/08/14 04:07:22;;;;;;;3.20;2.38;;;30.80;43.50;;;;;;20873626;28;20032;-72
2022/08/14 04:17:22;;;;;;;3.15;2.72;;;30.70;43.50;;;;;;20891845;28;20040;-72
2022/08/14 04:27:23;;;;;;;4.43;2.80;;;30.70;43.60;;;;;;20872580;28;20087;-71
2022/08/14 04:58:04;;;;;;;3.25;2.70;;;30.70;43.70;;;;;;20889576;28;20041;-71
2022/08/14 05:08:07;;;;;;;4.80;3.10;;;30.70;43.70;;;;;;20870331;28;20072;-72
2022/08/14 05:18:11;;;;;;;3.15;2.85;;;30.70;43.70;;;;;;20886784;28;20041;-72
2022/08/14 05:28:17;;;;;;;3.17;2.28;;;30.70;43.70;;;;;;20870334;28;20394;-71
2022/08/14 05:38:19;;;;;;;3.03;2.72;;;30.70;43.80;;;;;;20886238;28;20041;-73
2022/08/14 05:48:20;;;;;;;3.03;2.55;;;30.70;43.70;;;;;;20889328;28;20040;-72
2022/08/14 05:58:21;;;;;;;2.42;2.22;;;30.70;43.70;;;;;;20867519;28;20571;-73
2022/08/14 06:08:23;;;;;;;2.90;2.30;;;30.70;43.80;;;;;;20883182;28;20036;-72
2022/08/14 06:18:23;;;;;;;2.87;2.57;;;30.70;43.80;;;;;;20865859;28;20047;-72
2022/08/14 06:28:24;;;;;;;2.90;2.58;;;30.70;43.80;;;;;;20882667;28;20464;-72
2022/08/14 06:38:25;;;;;;;2.97;2.67;;;30.70;43.80;;;;;;20881609;28;20033;-71
2022/08/14 06:48:26;;;;;;;3.37;2.90;;;30.70;43.80;;;;;;20881444;28;20055;-71
2022/08/14 06:58:26;;;;;;;2.50;2.30;;;30.70;43.80;;;;;;20863373;28;20547;-73
2022/08/14 07:08:28;;;;;;;3.00;2.70;;;30.70;43.80;;;;;;20879201;28;20111;-72
2022/08/14 07:18:29;;;;;;;2.85;2.33;;;30.70;43.90;;;;;;20878157;28;20299;-71
2022/08/14 07:28:31;;;;;;;2.38;2.17;;;30.70;43.90;;;;;;20877602;28;20067;-72
2022/08/14 07:38:32;;;;;;;2.67;2.40;;;30.70;43.80;;;;;;20876559;28;20483;-71
2022/08/14 07:48:37;;;;;;;2.53;2.17;;;30.70;43.80;;;;;;20877538;28;20086;-70
2022/08/14 07:58:38;;;;;;;3.00;2.40;;;30.70;43.90;;;;;;20874880;28;20041;-72
2022/08/14 08:08:38;;;;;;;3.78;2.35;;;30.70;43.80;;;;;;20874612;28;20482;-74
2022/08/14 08:18:39;;;;;;;2.45;2.13;;;30.80;43.80;;;;;;20873497;28;20052;-71
2022/08/14 08:28:40;;;;;;;2.25;1.92;;;30.80;43.70;;;;;;20873058;28;20060;-72
2022/08/14 08:38:40;;;;;;;2.20;1.95;;;30.80;43.70;;;;;;20872494;28;20043;-71
2022/08/14 08:48:50;;;;;;;4.68;2.40;;;30.80;43.70;;;;;;20872289;28;20508;-74
2022/08/14 08:58:51;;;;;;;2.92;2.20;;;30.70;43.70;;;;;;20887811;28;20045;-71
2022/08/14 09:08:51;;;;;;;2.10;1.90;;;30.70;43.80;;;;;;20870385;28;20033;-73
2022/08/14 09:18:53;;;;;;;2.60;2.20;;;30.70;43.80;;;;;;20871750;28;20052;-72
2022/08/14 09:28:53;;;;;;;2.58;1.85;;;30.70;43.80;;;;;;20886640;28;20036;-71
2022/08/14 09:39:19;;;;;;;2.60;1.97;;;30.70;43.90;;;;;;20905897;28;20040;-72
2022/08/14 09:49:32;;;;;;;2.53;1.92;;;30.70;43.90;;;;;;20885246;28;20086;-72
2022/08/14 09:59:40;;;;;;;2.40;2.17;;;30.60;43.80;;;;;;20888265;28;20041;-70
2022/08/14 10:09:48;;;;;;;2.50;2.10;;;30.70;43.80;;;;;;20883417;28;20033;-70
2022/08/14 10:19:49;;;;;;;2.55;2.10;;;30.70;43.80;;;;;;20883458;28;20040;-72
2022/08/14 10:30:00;;;;;;;2.10;1.88;;;30.70;43.60;;;;;;20864485;28;20123;-71
2022/08/14 10:40:01;;;;;;;2.28;1.85;;;30.80;43.40;;;;;;20896713;28;20091;-71
2022/08/14 10:50:02;;;;;;;2.15;1.90;;;30.90;43.20;;;;;;20880512;28;20033;-71
2022/08/14 11:00:12;;;;;;;2.25;1.75;;;31.00;43.00;;;;;;20878000;28;20072;-73
2022/08/14 11:10:13;;;;;;;2.38;1.75;;;31.10;42.90;;;;;;20876266;28;20468;-71
2022/08/14 11:20:15;;;;;;;1.83;1.67;;;31.20;42.70;;;;;;20876650;28;20040;-73
2022/08/14 11:30:20;;;;;;;1.50;1.40;;;31.30;42.50;;;;;;20875605;28;20083;-73
2022/08/14 11:40:23;;;;;;;2.20;1.85;;;31.40;42.30;;;;;;20875933;28;20090;-70
2022/08/14 11:50:25;;;;;;;1.67;1.47;;;31.50;42.10;;;;;;20858009;28;20040;-71
2022/08/14 12:00:25;;;;;;;1.77;1.53;;;31.60;41.90;;;;;;20874945;28;20036;-72
2022/08/14 12:10:28;;;;;;;2.35;1.65;;;31.60;41.80;;;;;;20873743;28;20510;-72
2022/08/14 12:20:33;;;;;;;1.50;1.40;;;31.70;41.70;;;;;;20857386;28;20044;-74
2022/08/14 12:30:41;;;;;;;2.47;1.95;;;31.70;41.60;;;;;;20889269;28;20045;-70
2022/08/14 12:40:50;;;;;;;2.63;2.03;;;31.80;41.60;;;;;;20855682;28;20037;-71
2022/08/14 12:50:51;;;;;;;2.40;2.20;;;31.80;41.40;;;;;;20871448;28;20045;-72
2022/08/14 13:00:51;;;;;;;1.40;1.30;;;31.90;41.50;;;;;;20871010;28;20033;-74
2022/08/14 13:10:52;;;;;;;1.40;1.30;;;31.90;41.40;;;;;;20869715;28;20475;-74
2022/08/14 13:20:53;;;;;;;1.63;1.50;;;31.90;41.40;;;;;;20870927;28;20517;-71
2022/08/14 13:30:53;;;;;;;1.43;1.33;;;31.90;41.40;;;;;;20868618;28;20045;-71
2022/08/14 13:40:54;;;;;;;1.75;1.50;;;31.90;41.40;;;;;;20868089;28;20083;-71
2022/08/14 13:50:55;;;;;;;2.15;1.85;;;31.90;41.50;;;;;;20883777;28;20476;-75
2022/08/14 14:00:57;;;;;;;1.98;1.55;;;31.90;41.50;;;;;;20884575;28;20033;-73
2022/08/14 14:10:57;;;;;;;2.00;1.77;;;31.90;41.60;;;;;;20874566;28;20045;-72
2022/08/14 14:20:58;;;;;;;2.33;1.70;;;31.90;41.70;;;;;;20898125;28;20507;-74
2022/08/14 14:31:00;;;;;;;1.35;1.23;;;31.90;41.70;;;;;;20881147;28;20063;-73
2022/08/14 14:41:01;;;;;;;1.90;1.52;;;31.90;41.80;;;;;;20880457;28;20481;-75
2022/08/14 14:51:01;;;;;;;2.60;2.10;;;31.90;41.80;;;;;;20879752;28;20135;-72
2022/08/14 15:01:03;;;;;;;2.43;1.87;;;31.80;41.80;;;;;;20880137;28;20056;-72
2022/08/14 15:11:04;;;;;;;2.40;1.93;;;31.80;42.00;;;;;;20863805;28;20299;-73
2022/08/14 15:21:05;;;;;;;2.17;1.65;;;31.80;42.10;;;;;;20893240;28;20459;-73
2022/08/14 15:31:06;;;;;;;2.78;2.03;;;31.70;42.20;;;;;;20877507;28;20395;-73
2022/08/14 15:41:06;;;;;;;2.20;1.90;;;31.60;42.40;;;;;;20876865;28;20191;-72
2022/08/14 15:51:07;;;;;;;1.88;1.67;;;31.50;42.60;;;;;;20859099;28;20044;-72
2022/08/14 16:01:19;;;;;;;1.67;1.50;;;31.40;42.80;;;;;;20892899;28;20031;-71
2022/08/14 16:11:20;;;;;;;2.23;1.93;;;31.30;43.00;;;;;;20892169;28;20064;-72
2022/08/14 16:21:21;;;;;;;1.88;1.77;;;31.20;43.00;;;;;;20858601;28;20378;-71
2022/08/14 16:31:23;;;;;;;1.48;1.38;;;31.30;43.10;;;;;;20888419;28;20041;-75
2022/08/14 16:41:26;;;;;;;1.83;1.63;;;31.20;43.00;;;;;;20871645;28;20127;-74
2022/08/14 16:51:28;;;;;;;1.60;1.50;;;31.30;43.00;;;;;;20888280;28;20071;-72
2022/08/14 17:01:29;;;;;;;2.38;1.75;;;31.30;43.00;;;;;;20871547;28;20407;-73
2022/08/14 17:11:30;;;;;;;2.00;1.70;;;31.30;43.00;;;;;;20853429;28;20129;-72
2022/08/14 17:21:34;;;;;;;1.52;1.35;;;31.20;43.00;;;;;;20869614;28;20184;-72
2022/08/14 17:31:34;;;;;;;1.77;1.60;;;31.20;43.00;;;;;;20853034;28;20109;-72
2022/08/14 17:41:50;;;;;;;1.63;1.20;;;31.10;43.20;;;;;;20885300;28;20052;-75
2022/08/14 17:52:05;;;;;;;1.75;1.45;;;31.10;43.00;;;;;;20884090;28;20045;-72
2022/08/14 18:02:07;;;;;;;1.85;1.35;;;31.10;43.00;;;;;;20883944;28;20470;-72
2022/08/14 18:12:08;;;;;;;1.80;1.50;;;31.10;43.00;;;;;;20883553;28;20037;-72
2022/08/14 18:22:09;;;;;;;1.83;1.73;;;31.20;43.10;;;;;;20882648;28;20040;-73
2022/08/14 18:32:31;;;;;;;2.38;1.45;;;31.10;43.10;;;;;;20881839;28;20551;-72
2022/08/14 18:42:32;;;;;;;1.30;1.10;;;31.10;43.20;;;;;;20881025;28;20040;-71
2022/08/14 18:52:35;;;;;;;1.67;1.48;;;31.10;43.20;;;;;;20897066;28;20051;-72
2022/08/14 19:02:39;;;;;;;1.80;1.70;;;31.10;43.20;;;;;;20879250;28;20486;-72
2022/08/14 19:12:53;;;;;;;2.00;1.70;;;31.10;43.30;;;;;;20861788;28;20051;-72
2022/08/14 19:22:54;;;;;;;2.53;1.92;;;31.10;43.40;;;;;;20877891;28;20036;-73
2022/08/14 19:32:56;;;;;;;1.87;1.57;;;31.10;43.50;;;;;;20894383;28;20052;-73
2022/08/14 19:42:57;;;;;;;2.45;1.73;;;31.10;43.50;;;;;;20876863;28;20032;-74
2022/08/14 19:53:09;;;;;;;2.33;1.52;;;31.10;43.50;;;;;;20875465;28;20040;-72
2022/08/14 20:03:09;;;;;;;2.40;2.20;;;31.10;43.50;;;;;;20874515;28;20102;-73
2022/08/14 20:13:11;;;;;;;2.70;1.95;;;31.10;43.50;;;;;;20889283;28;20033;-72
2022/08/14 20:23:13;;;;;;;2.20;1.95;;;31.10;43.60;;;;;;20888604;28;20526;-72
2022/08/14 20:33:15;;;;;;;3.17;2.42;;;31.10;43.50;;;;;;20871709;28;20078;-73
2022/08/14 20:53:58;;;;;;;2.45;2.05;;;31.10;43.50;;;;;;20789027;28;20045;-73
2022/08/14 21:03:59;;;;;;;2.72;2.53;;;31.20;43.60;;;;;;20869495;28;20037;-73
2022/08/14 21:14:01;;;;;;;2.83;2.60;;;31.10;43.50;;;;;;20870036;28;20041;-73
2022/08/14 21:24:02;;;;;;;3.00;2.70;;;31.10;43.50;;;;;;20883266;28;20029;-72
2022/08/14 21:34:03;;;;;;;2.70;2.38;;;31.10;43.50;;;;;;20884996;28;20116;-74
2022/08/14 21:44:04;;;;;;;3.25;2.88;;;31.10;43.50;;;;;;20884327;28;20116;-73
2022/08/14 21:54:05;;;;;;;3.33;3.00;;;31.10;43.50;;;;;;20900096;28;20041;-72
2022/08/14 22:04:07;;;;;;;3.15;2.58;;;31.10;43.50;;;;;;20882539;28;20032;-74
2022/08/14 22:14:08;;;;;;;2.63;2.42;;;31.10;43.50;;;;;;20883140;28;20040;-75
2022/08/14 22:24:09;;;;;;;3.35;2.97;;;31.10;43.50;;;;;;20882302;28;20051;-73
2022/08/14 22:34:10;;;;;;;3.22;2.55;;;31.20;43.60;;;;;;20879458;28;20037;-72
2022/08/14 22:44:17;;;;;;;2.47;2.20;;;31.10;43.50;;;;;;20879678;28;20063;-72
2022/08/14 22:54:17;;;;;;;2.83;2.50;;;31.20;43.60;;;;;;20879058;28;20048;-75
2022/08/14 23:04:18;;;;;;;3.33;3.00;;;31.10;43.50;;;;;;20877763;28;20037;-72
2022/08/14 23:14:21;;;;;;;3.22;2.88;;;31.10;43.50;;;;;;20877417;28;20037;-72
2022/08/14 23:24:22;;;;;;;;;;;31.10;43.50;;;;;;20861847;28;20128;-71
2022/08/14 23:34:23;;;;;;;3.17;2.67;;;31.10;43.60;;;;;;20875494;28;19923;-72
2022/08/14 23:44:23;;;;;;;3.25;2.88;;;31.10;43.60;;;;;;20890762;28;20037;-73
2022/08/14 23:54:25;;;;;;;3.65;3.05;;;31.10;43.60;;;;;;20890255;28;20071;-74
